sensor_id;sensor_type;location;lat;lon;timestamp;pressure;altitude;pressure_sealevel;temperature;humidity
21357;BME280;10836;53.068;18.234;2023-05-29T00:00:47;101388.25;;;6.98;100.00
21357;BME280;10836;53.068;18.234;2023-05-29T00:03:27;101387.06;;;6.94;100.00
21357;BME280;10836;53.068;18.234;2023-05-29T00:05:54;101382.09;;;6.79;100.00
21357;BME280;10836;53.068;18.234;2023-05-29T00:08:22;101382.09;;;6.79;100.00
21357;BME280;10836;53.068;18.234;2023-05-29T00:10:48;101391.25;;;6.66;100.00
21357;BME280;10836;53.068;18.234;2023-05-29T00:13:16;101386.41;;;6.68;100.00
21357;BME280;10836;53.068;18.234;2023-05-29T00:15:43;101389.22;;;6.62;100.00
21357;BME280;10836;53.068;18.234;2023-05-29T00:18:10;101376.69;;;6.49;100.00
21357;BME280;10836;53.068;18.234;2023-05-29T00:20:37;101376.22;;;6.52;100.00
21357;BME280;10836;53.068;18.234;2023-05-29T00:23:05;101382.38;;;6.59;100.00
21357;BME280;10836;53.068;18.234;2023-05-29T00:25:33;101385.47;;;6.33;100.00
21357;BME280;10836;53.068;18.234;2023-05-29T00:28:00;101387.13;;;6.16;100.00
21357;BME280;10836;53.068;18.234;2023-05-29T00:30:27;101391.81;;;6.27;100.00
21357;BME280;10836;53.068;18.234;2023-05-29T00:32:54;101393.91;;;6.25;100.00
21357;BME280;10836;53.068;18.234;2023-05-29T00:35:21;101393.34;;;6.05;100.00
21357;BME280;10836;53.068;18.234;2023-05-29T00:37:48;101402.38;;;5.98;100.00
21357;BME280;10836;53.068;18.234;2023-05-29T00:40:15;101402.75;;;6.02;100.00
21357;BME280;10836;53.068;18.234;2023-05-29T00:42:42;101395.91;;;5.99;100.00
21357;BME280;10836;53.068;18.234;2023-05-29T00:45:10;101393.19;;;5.99;100.00
21357;BME280;10836;53.068;18.234;2023-05-29T00:47:37;101402.38;;;5.98;100.00
21357;BME280;10836;53.068;18.234;2023-05-29T00:50:04;101401.47;;;6.05;100.00
21357;BME280;10836;53.068;18.234;2023-05-29T00:52:32;101399.13;;;6.08;100.00
21357;BME280;10836;53.068;18.234;2023-05-29T00:54:59;101403.13;;;6.06;100.00
21357;BME280;10836;53.068;18.234;2023-05-29T00:57:29;101396.06;;;6.05;100.00
21357;BME280;10836;53.068;18.234;2023-05-29T00:59:57;101398.16;;;6.03;100.00
21357;BME280;10836;53.068;18.234;2023-05-29T01:02:27;101398.84;;;5.98;100.00
21357;BME280;10836;53.068;18.234;2023-05-29T01:04:56;101402.00;;;5.95;100.00
21357;BME280;10836;53.068;18.234;2023-05-29T01:07:23;101406.44;;;5.89;100.00
21357;BME280;10836;53.068;18.234;2023-05-29T01:09:50;101401.00;;;5.89;100.00
21357;BME280;10836;53.068;18.234;2023-05-29T01:12:35;101405.81;;;5.87;100.00
21357;BME280;10836;53.068;18.234;2023-05-29T01:25:32;101398.56;;;5.63;100.00
21357;BME280;10836;53.068;18.234;2023-05-29T01:28:04;101402.16;;;5.57;100.00
21357;BME280;10836;53.068;18.234;2023-05-29T01:30:32;101400.34;;;5.51;100.00
21357;BME280;10836;53.068;18.234;2023-05-29T01:32:59;101400.28;;;5.57;100.00
21357;BME280;10836;53.068;18.234;2023-05-29T01:35:26;101399.91;;;5.54;100.00
21357;BME280;10836;53.068;18.234;2023-05-29T01:37:54;101398.09;;;5.48;100.00
21357;BME280;10836;53.068;18.234;2023-05-29T01:40:22;101404.44;;;5.35;100.00
21357;BME280;10836;53.068;18.234;2023-05-29T01:42:51;101395.09;;;5.31;100.00
21357;BME280;10836;53.068;18.234;2023-05-29T01:45:19;101396.25;;;5.42;100.00
21357;BME280;10836;53.068;18.234;2023-05-29T01:47:47;101400.75;;;5.29;100.00
21357;BME280;10836;53.068;18.234;2023-05-29T01:50:15;101397.19;;;5.29;100.00
21357;BME280;10836;53.068;18.234;2023-05-29T01:52:45;101392.06;;;5.21;100.00
21357;BME280;10836;53.068;18.234;2023-05-29T01:55:12;101402.31;;;5.19;100.00
21357;BME280;10836;53.068;18.234;2023-05-29T01:57:40;101398.84;;;5.30;100.00
21357;BME280;10836;53.068;18.234;2023-05-29T02:00:07;101385.97;;;5.25;100.00
21357;BME280;10836;53.068;18.234;2023-05-29T02:02:41;101393.88;;;5.27;100.00
21357;BME280;10836;53.068;18.234;2023-05-29T02:05:09;101400.75;;;5.29;100.00
21357;BME280;10836;53.068;18.234;2023-05-29T02:07:36;101397.38;;;5.09;100.00
21357;BME280;10836;53.068;18.234;2023-05-29T02:10:07;101393.34;;;5.18;100.00
21357;BME280;10836;53.068;18.234;2023-05-29T02:12:34;101394.50;;;5.04;100.00
21357;BME280;10836;53.068;18.234;2023-05-29T02:15:00;101392.25;;;5.01;100.00
21357;BME280;10836;53.068;18.234;2023-05-29T02:17:28;101392.59;;;5.11;100.00
21357;BME280;10836;53.068;18.234;2023-05-29T02:19:55;101398.88;;;5.05;100.00
21357;BME280;10836;53.068;18.234;2023-05-29T02:22:22;101391.53;;;5.12;100.00
21357;BME280;10836;53.068;18.234;2023-05-29T02:24:49;101395.28;;;5.11;100.00
21357;BME280;10836;53.068;18.234;2023-05-29T02:27:16;101398.59;;;5.13;100.00
21357;BME280;10836;53.068;18.234;2023-05-29T02:29:43;101397.81;;;5.06;100.00
21357;BME280;10836;53.068;18.234;2023-05-29T02:32:10;101396.16;;;5.05;100.00
21357;BME280;10836;53.068;18.234;2023-05-29T02:34:37;101393.13;;;4.95;100.00
21357;BME280;10836;53.068;18.234;2023-05-29T02:37:04;101389.56;;;4.94;100.00
21357;BME280;10836;53.068;18.234;2023-05-29T02:39:31;101394.94;;;5.01;100.00
21357;BME280;10836;53.068;18.234;2023-05-29T02:41:58;101396.59;;;5.02;100.00
21357;BME280;10836;53.068;18.234;2023-05-29T02:44:25;101392.84;;;5.03;100.00
21357;BME280;10836;53.068;18.234;2023-05-29T02:46:52;101389.44;;;5.14;100.00
21357;BME280;10836;53.068;18.234;2023-05-29T02:49:19;101387.78;;;5.13;100.00
21357;BME280;10836;53.068;18.234;2023-05-29T02:51:46;101390.75;;;5.05;100.00
21357;BME280;10836;53.068;18.234;2023-05-29T02:54:13;101401.59;;;5.05;100.00
21357;BME280;10836;53.068;18.234;2023-05-29T02:56:40;101388.91;;;4.99;100.00
21357;BME280;10836;53.068;18.234;2023-05-29T02:59:07;101400.78;;;4.98;100.00
21357;BME280;10836;53.068;18.234;2023-05-29T03:01:34;101388.22;;;5.10;100.00
21357;BME280;10836;53.068;18.234;2023-05-29T03:04:01;101393.81;;;5.15;100.00
21357;BME280;10836;53.068;18.234;2023-05-29T03:06:32;101385.59;;;4.97;100.00
21357;BME280;10836;53.068;18.234;2023-05-29T03:08:59;101395.81;;;4.95;100.00
21357;BME280;10836;53.068;18.234;2023-05-29T03:11:27;101399.66;;;5.12;100.00
21357;BME280;10836;53.068;18.234;2023-05-29T03:13:55;101398.31;;;5.21;100.00
21357;BME280;10836;53.068;18.234;2023-05-29T03:16:22;101392.22;;;5.26;100.00
21357;BME280;10836;53.068;18.234;2023-05-29T03:18:49;101396.38;;;5.28;100.00
21357;BME280;10836;53.068;18.234;2023-05-29T03:21:19;101398.47;;;5.26;100.00
21357;BME280;10836;53.068;18.234;2023-05-29T03:23:46;101400.03;;;5.41;100.00
21357;BME280;10836;53.068;18.234;2023-05-29T03:26:13;101396.44;;;5.47;100.00
21357;BME280;10836;53.068;18.234;2023-05-29T03:28:41;101400.28;;;5.57;100.00
21357;BME280;10836;53.068;18.234;2023-05-29T03:31:10;101399.91;;;5.54;100.00
21357;BME280;10836;53.068;18.234;2023-05-29T03:33:36;101402.78;;;5.59;100.00
21357;BME280;10836;53.068;18.234;2023-05-29T03:36:15;101397.25;;;5.65;100.00
21357;BME280;10836;53.068;18.234;2023-05-29T03:38:45;101398.41;;;5.76;100.00
21357;BME280;10836;53.068;18.234;2023-05-29T03:41:12;101405.81;;;5.87;100.00
21357;BME280;10836;53.068;18.234;2023-05-29T03:43:39;101405.47;;;6.02;100.00
21357;BME280;10836;53.068;18.234;2023-05-29T03:46:06;101409.03;;;6.32;100.00
21357;BME280;10836;53.068;18.234;2023-05-29T03:48:34;101412.28;;;6.71;100.00
21357;BME280;10836;53.068;18.234;2023-05-29T03:51:02;101417.44;;;6.91;100.00
21357;BME280;10836;53.068;18.234;2023-05-29T03:53:33;101416.09;;;6.93;100.00
21357;BME280;10836;53.068;18.234;2023-05-29T03:56:01;101412.69;;;6.98;100.00
21357;BME280;10836;53.068;18.234;2023-05-29T03:58:28;101411.78;;;7.04;100.00
21357;BME280;10836;53.068;18.234;2023-05-29T04:00:56;101417.59;;;7.19;100.00
21357;BME280;10836;53.068;18.234;2023-05-29T04:03:24;101419.03;;;7.22;100.00
21357;BME280;10836;53.068;18.234;2023-05-29T04:05:51;101419.63;;;7.36;100.00
21357;BME280;10836;53.068;18.234;2023-05-29T04:08:18;101427.41;;;7.44;100.00
21357;BME280;10836;53.068;18.234;2023-05-29T04:10:46;101435.94;;;7.59;100.00
21357;BME280;10836;53.068;18.234;2023-05-29T04:13:13;101427.44;;;7.67;100.00
21357;BME280;10836;53.068;18.234;2023-05-29T04:15:40;101425.03;;;7.82;100.00
21357;BME280;10836;53.068;18.234;2023-05-29T04:18:08;101430.13;;;8.02;100.00
21357;BME280;10836;53.068;18.234;2023-05-29T04:20:35;101433.41;;;8.16;100.00
21357;BME280;10836;53.068;18.234;2023-05-29T04:23:02;101433.53;;;8.21;100.00
21357;BME280;10836;53.068;18.234;2023-05-29T04:25:30;101433.00;;;8.47;100.00
21357;BME280;10836;53.068;18.234;2023-05-29T04:27:57;101434.66;;;8.48;100.00
21357;BME280;10836;53.068;18.234;2023-05-29T04:30:24;101437.50;;;8.70;100.00
21357;BME280;10836;53.068;18.234;2023-05-29T04:32:51;101425.75;;;8.81;100.00
21357;BME280;10836;53.068;18.234;2023-05-29T04:35:20;101427.34;;;8.94;100.00
21357;BME280;10836;53.068;18.234;2023-05-29T04:37:56;101424.38;;;9.12;100.00
21357;BME280;10836;53.068;18.234;2023-05-29T04:40:28;101428.22;;;9.28;100.00
21357;BME280;10836;53.068;18.234;2023-05-29T04:42:56;101428.06;;;9.51;100.00
21357;BME280;10836;53.068;18.234;2023-05-29T04:45:30;101430.09;;;9.61;100.00
21357;BME280;10836;53.068;18.234;2023-05-29T04:47:57;101427.03;;;9.74;100.00
21357;BME280;10836;53.068;18.234;2023-05-29T04:50:25;101428.69;;;9.97;100.00
21357;BME280;10836;53.068;18.234;2023-05-29T04:52:56;101430.06;;;10.16;100.00
21357;BME280;10836;53.068;18.234;2023-05-29T04:55:24;101430.66;;;10.40;100.00
21357;BME280;10836;53.068;18.234;2023-05-29T04:57:51;101421.00;;;10.54;100.00
21357;BME280;10836;53.068;18.234;2023-05-29T05:00:19;101412.28;;;10.79;100.00
21357;BME280;10836;53.068;18.234;2023-05-29T05:02:47;101414.81;;;10.91;100.00
21357;BME280;10836;53.068;18.234;2023-05-29T05:05:14;101407.91;;;11.10;100.00
21357;BME280;10836;53.068;18.234;2023-05-29T05:07:42;101416.78;;;11.22;100.00
21357;BME280;10836;53.068;18.234;2023-05-29T05:10:09;101419.19;;;11.51;98.49
21357;BME280;10836;53.068;18.234;2023-05-29T05:12:36;101416.84;;;11.70;98.01
21357;BME280;10836;53.068;18.234;2023-05-29T05:15:04;101415.84;;;11.81;97.45
21357;BME280;10836;53.068;18.234;2023-05-29T05:17:34;101416.75;;;11.96;96.68
21357;BME280;10836;53.068;18.234;2023-05-29T05:20:01;101426.78;;;12.33;92.84
21357;BME280;10836;53.068;18.234;2023-05-29T05:22:28;101429.28;;;12.40;92.86
21357;BME280;10836;53.068;18.234;2023-05-29T05:24:56;101430.16;;;12.60;91.80
21357;BME280;10836;53.068;18.234;2023-05-29T05:27:24;101434.06;;;12.80;91.12
21357;BME280;10836;53.068;18.234;2023-05-29T05:29:52;101430.81;;;12.93;89.47
21357;BME280;10836;53.068;18.234;2023-05-29T05:32:19;101430.81;;;12.93;89.93
21357;BME280;10836;53.068;18.234;2023-05-29T05:34:53;101437.66;;;13.00;89.79
21357;BME280;10836;53.068;18.234;2023-05-29T05:37:20;101434.16;;;13.25;87.69
21357;BME280;10836;53.068;18.234;2023-05-29T05:39:50;101425.91;;;13.61;86.07
21357;BME280;10836;53.068;18.234;2023-05-29T05:42:17;101434.63;;;14.04;84.28
21357;BME280;10836;53.068;18.234;2023-05-29T05:44:49;101435.50;;;14.69;80.99
21357;BME280;10836;53.068;18.234;2023-05-29T05:47:16;101439.53;;;15.20;77.23
21357;BME280;10836;53.068;18.234;2023-05-29T05:49:43;101443.84;;;15.31;77.06
21357;BME280;10836;53.068;18.234;2023-05-29T05:52:10;101436.31;;;15.13;75.58
21357;BME280;10836;53.068;18.234;2023-05-29T05:54:37;101441.13;;;15.26;76.96
21357;BME280;10836;53.068;18.234;2023-05-29T05:57:04;101441.22;;;15.84;73.98
21357;BME280;10836;53.068;18.234;2023-05-29T05:59:35;101453.31;;;17.35;67.36
21357;BME280;10836;53.068;18.234;2023-05-29T06:02:03;101450.25;;;18.43;60.07
21357;BME280;10836;53.068;18.234;2023-05-29T06:04:35;101457.09;;;20.95;50.89
21357;BME280;10836;53.068;18.234;2023-05-29T06:07:02;101461.63;;;20.82;46.16
21357;BME280;10836;53.068;18.234;2023-05-29T06:09:29;101462.34;;;22.20;44.55
21357;BME280;10836;53.068;18.234;2023-05-29T06:11:56;101462.50;;;21.43;45.60
21357;BME280;10836;53.068;18.234;2023-05-29T06:14:23;101469.28;;;21.97;42.49
21357;BME280;10836;53.068;18.234;2023-05-29T06:16:52;101460.78;;;22.70;42.31
21357;BME280;10836;53.068;18.234;2023-05-29T06:19:20;101451.84;;;23.06;39.63
21357;BME280;10836;53.068;18.234;2023-05-29T06:21:54;101461.34;;;24.25;36.03
21357;BME280;10836;53.068;18.234;2023-05-29T06:24:22;101457.00;;;24.76;34.83
21357;BME280;10836;53.068;18.234;2023-05-29T06:26:49;101456.59;;;25.14;33.56
21357;BME280;10836;53.068;18.234;2023-05-29T06:29:18;101454.38;;;24.43;34.84
21357;BME280;10836;53.068;18.234;2023-05-29T06:31:44;101457.88;;;24.52;34.53
21357;BME280;10836;53.068;18.234;2023-05-29T06:34:12;101446.66;;;23.58;35.45
21357;BME280;10836;53.068;18.234;2023-05-29T06:36:39;101438.38;;;23.95;34.22
21357;BME280;10836;53.068;18.234;2023-05-29T06:39:09;101433.38;;;23.01;36.52
21357;BME280;10836;53.068;18.234;2023-05-29T06:41:36;101441.94;;;23.17;36.40
21357;BME280;10836;53.068;18.234;2023-05-29T06:44:03;101443.22;;;22.48;36.92
21357;BME280;10836;53.068;18.234;2023-05-29T06:46:31;101449.38;;;21.78;37.58
21357;BME280;10836;53.068;18.234;2023-05-29T06:48:58;101460.50;;;20.83;38.88
21357;BME280;10836;53.068;18.234;2023-05-29T06:51:26;101451.81;;;20.19;39.94
21357;BME280;10836;53.068;18.234;2023-05-29T06:53:56;101454.47;;;20.24;40.38
21357;BME280;10836;53.068;18.234;2023-05-29T06:56:24;101445.19;;;20.29;39.71
21357;BME280;10836;53.068;18.234;2023-05-29T06:58:52;101456.00;;;20.08;40.64
21357;BME280;10836;53.068;18.234;2023-05-29T07:01:21;101451.69;;;20.24;42.11
21357;BME280;10836;53.068;18.234;2023-05-29T07:04:01;101446.50;;;20.31;40.94
21357;BME280;10836;53.068;18.234;2023-05-29T07:06:28;101452.59;;;20.11;41.05
21357;BME280;10836;53.068;18.234;2023-05-29T07:08:56;101448.69;;;20.51;40.12
21357;BME280;10836;53.068;18.234;2023-05-29T07:11:23;101451.53;;;20.77;41.64
21357;BME280;10836;53.068;18.234;2023-05-29T07:13:50;101453.34;;;20.99;41.79
21357;BME280;10836;53.068;18.234;2023-05-29T07:16:19;101451.69;;;20.81;39.32
21357;BME280;10836;53.068;18.234;2023-05-29T07:18:59;101444.69;;;20.75;43.12
21357;BME280;10836;53.068;18.234;2023-05-29T07:21:29;101454.25;;;20.51;43.54
21357;BME280;10836;53.068;18.234;2023-05-29T07:23:59;101464.31;;;21.13;41.08
21357;BME280;10836;53.068;18.234;2023-05-29T07:26:26;101464.91;;;20.75;44.00
21357;BME280;10836;53.068;18.234;2023-05-29T07:28:53;101466.06;;;20.83;43.27
21357;BME280;10836;53.068;18.234;2023-05-29T07:31:20;101465.78;;;21.28;41.77
21357;BME280;10836;53.068;18.234;2023-05-29T07:33:49;101468.56;;;21.45;42.07
21357;BME280;10836;53.068;18.234;2023-05-29T07:36:17;101474.78;;;21.42;41.11
21357;BME280;10836;53.068;18.234;2023-05-29T07:38:46;101463.00;;;21.53;41.02
21357;BME280;10836;53.068;18.234;2023-05-29T07:41:15;101467.53;;;21.75;40.92
21357;BME280;10836;53.068;18.234;2023-05-29T07:43:50;101476.50;;;21.89;39.86
21357;BME280;10836;53.068;18.234;2023-05-29T07:46:19;101472.47;;;22.25;38.44
21357;BME280;10836;53.068;18.234;2023-05-29T07:48:49;101471.09;;;22.02;40.34
21357;BME280;10836;53.068;18.234;2023-05-29T07:51:17;101469.38;;;22.18;41.10
21357;BME280;10836;53.068;18.234;2023-05-29T07:53:46;101478.53;;;22.18;40.20
21357;BME280;10836;53.068;18.234;2023-05-29T07:56:14;101479.59;;;22.73;38.83
21357;BME280;10836;53.068;18.234;2023-05-29T07:58:44;101483.28;;;22.56;39.78
21357;BME280;10836;53.068;18.234;2023-05-29T08:01:10;101478.91;;;22.84;38.32
21357;BME280;10836;53.068;18.234;2023-05-29T08:03:38;101477.13;;;22.80;40.55
21357;BME280;10836;53.068;18.234;2023-05-29T08:06:24;101475.38;;;22.67;39.18
21357;BME280;10836;53.068;18.234;2023-05-29T08:08:55;101475.06;;;22.60;39.92
21357;BME280;10836;53.068;18.234;2023-05-29T08:11:22;101486.78;;;22.82;40.21
21357;BME280;10836;53.068;18.234;2023-05-29T08:13:49;101484.56;;;22.58;39.95
21357;BME280;10836;53.068;18.234;2023-05-29T08:16:17;101488.63;;;22.70;38.99
21357;BME280;10836;53.068;18.234;2023-05-29T08:18:44;101481.56;;;23.22;38.41
21357;BME280;10836;53.068;18.234;2023-05-29T08:21:11;101492.22;;;23.62;38.17
21357;BME280;10836;53.068;18.234;2023-05-29T08:23:39;101480.94;;;24.04;37.22
21357;BME280;10836;53.068;18.234;2023-05-29T08:26:06;101482.22;;;23.61;39.33
21357;BME280;10836;53.068;18.234;2023-05-29T08:28:33;101494.25;;;23.74;37.52
21357;BME280;10836;53.068;18.234;2023-05-29T08:31:00;101492.47;;;23.48;37.76
21357;BME280;10836;53.068;18.234;2023-05-29T08:33:27;101492.50;;;23.28;38.21
21357;BME280;10836;53.068;18.234;2023-05-29T08:35:58;101490.31;;;23.54;39.42
21357;BME280;10836;53.068;18.234;2023-05-29T08:38:25;101497.78;;;23.62;37.05
21357;BME280;10836;53.068;18.234;2023-05-29T08:40:56;101491.66;;;23.06;38.06
21357;BME280;10836;53.068;18.234;2023-05-29T08:43:25;101493.84;;;23.21;38.19
21357;BME280;10836;53.068;18.234;2023-05-29T08:45:55;101498.28;;;23.22;37.84
21357;BME280;10836;53.068;18.234;2023-05-29T08:48:24;101493.91;;;23.87;36.66
21357;BME280;10836;53.068;18.234;2023-05-29T08:50:53;101500.91;;;23.81;36.07
21357;BME280;10836;53.068;18.234;2023-05-29T08:53:22;101500.38;;;23.67;34.92
21357;BME280;10836;53.068;18.234;2023-05-29T08:55:49;101499.28;;;23.60;37.66
21357;BME280;10836;53.068;18.234;2023-05-29T08:58:20;101498.19;;;24.18;37.11
21357;BME280;10836;53.068;18.234;2023-05-29T09:00:48;101500.63;;;24.19;38.20
21357;BME280;10836;53.068;18.234;2023-05-29T09:03:16;101498.31;;;23.76;36.59
21357;BME280;10836;53.068;18.234;2023-05-29T09:05:45;101497.03;;;23.86;35.24
21357;BME280;10836;53.068;18.234;2023-05-29T09:08:13;101493.91;;;22.92;37.47
21357;BME280;10836;53.068;18.234;2023-05-29T09:10:44;101495.75;;;23.30;36.35
21357;BME280;10836;53.068;18.234;2023-05-29T09:13:12;101502.16;;;24.29;35.82
21357;BME280;10836;53.068;18.234;2023-05-29T09:15:41;101497.44;;;23.97;35.41
21357;BME280;10836;53.068;18.234;2023-05-29T09:18:11;101497.75;;;24.28;34.87
21357;BME280;10836;53.068;18.234;2023-05-29T09:20:38;101503.72;;;24.06;35.65
21357;BME280;10836;53.068;18.234;2023-05-29T09:23:08;101504.25;;;24.81;35.40
21357;BME280;10836;53.068;18.234;2023-05-29T09:25:40;101498.38;;;25.23;33.18
21357;BME280;10836;53.068;18.234;2023-05-29T09:28:10;101510.56;;;24.53;35.52
21357;BME280;10836;53.068;18.234;2023-05-29T09:30:38;101507.16;;;25.49;35.30
21357;BME280;10836;53.068;18.234;2023-05-29T09:33:08;101506.41;;;25.24;33.01
21357;BME280;10836;53.068;18.234;2023-05-29T09:35:39;101510.06;;;24.88;33.08
21357;BME280;10836;53.068;18.234;2023-05-29T09:38:08;101506.34;;;25.48;32.64
21357;BME280;10836;53.068;18.234;2023-05-29T09:40:39;101500.06;;;25.11;33.46
21357;BME280;10836;53.068;18.234;2023-05-29T09:45:42;101492.53;;;25.00;35.33
21357;BME280;10836;53.068;18.234;2023-05-29T09:48:15;101488.44;;;25.09;35.45
21357;BME280;10836;53.068;18.234;2023-05-29T09:50:43;101485.34;;;25.14;33.35
21357;BME280;10836;53.068;18.234;2023-05-29T09:53:22;101485.91;;;25.88;31.54
21357;BME280;10836;53.068;18.234;2023-05-29T09:55:52;101481.19;;;25.76;33.27
21357;BME280;10836;53.068;18.234;2023-05-29T09:58:20;101479.53;;;26.50;32.81
21357;BME280;10836;53.068;18.234;2023-05-29T10:00:49;101486.94;;;26.27;31.25
21357;BME280;10836;53.068;18.234;2023-05-29T10:03:16;101490.44;;;26.08;32.00
21357;BME280;10836;53.068;18.234;2023-05-29T10:05:47;101488.97;;;25.55;31.95
21357;BME280;10836;53.068;18.234;2023-05-29T10:08:17;101501.03;;;25.59;33.36
21357;BME280;10836;53.068;18.234;2023-05-29T10:10:59;101493.81;;;25.58;32.00
21357;BME280;10836;53.068;18.234;2023-05-29T10:13:28;101479.88;;;23.96;33.21
21357;BME280;10836;53.068;18.234;2023-05-29T10:15:58;101487.13;;;24.95;35.07
21357;BME280;10836;53.068;18.234;2023-05-29T10:18:32;101482.63;;;25.02;34.12
21357;BME280;10836;53.068;18.234;2023-05-29T10:21:02;101484.75;;;24.57;34.91
21357;BME280;10836;53.068;18.234;2023-05-29T10:23:30;101481.25;;;24.47;34.66
21357;BME280;10836;53.068;18.234;2023-05-29T10:26:05;101478.28;;;23.62;35.26
21357;BME280;10836;53.068;18.234;2023-05-29T10:28:36;101488.44;;;24.36;36.71
21357;BME280;10836;53.068;18.234;2023-05-29T10:31:10;101485.88;;;24.80;34.40
21357;BME280;10836;53.068;18.234;2023-05-29T10:34:02;101490.78;;;24.34;34.35
21357;BME280;10836;53.068;18.234;2023-05-29T10:36:35;101485.88;;;24.31;34.66
21357;BME280;10836;53.068;18.234;2023-05-29T10:39:05;101488.84;;;24.02;36.32
21357;BME280;10836;53.068;18.234;2023-05-29T10:41:31;101485.88;;;24.80;33.38
21357;BME280;10836;53.068;18.234;2023-05-29T10:44:01;101478.28;;;24.93;34.00
21357;BME280;10836;53.068;18.234;2023-05-29T10:49:18;101484.16;;;25.28;32.03
21357;BME280;10836;53.068;18.234;2023-05-29T10:51:46;101471.19;;;24.95;33.33
21357;BME280;10836;53.068;18.234;2023-05-29T10:54:13;101476.34;;;25.61;35.43
21357;BME280;10836;53.068;18.234;2023-05-29T10:56:40;101472.94;;;25.40;31.44
21357;BME280;10836;53.068;18.234;2023-05-29T10:59:10;101473.97;;;25.47;31.81
21357;BME280;10836;53.068;18.234;2023-05-29T11:01:40;101463.44;;;24.52;33.01
21357;BME280;10836;53.068;18.234;2023-05-29T11:06:47;101456.69;;;23.50;33.56
21357;BME280;10836;53.068;18.234;2023-05-29T11:09:37;101445.63;;;23.63;32.91
21357;BME280;10836;53.068;18.234;2023-05-29T11:12:17;101448.41;;;24.08;33.32
21357;BME280;10836;53.068;18.234;2023-05-29T11:15:08;101456.84;;;25.49;32.30
21357;BME280;10836;53.068;18.234;2023-05-29T11:20:06;101447.25;;;25.78;30.92
21357;BME280;10836;53.068;18.234;2023-05-29T11:22:56;101453.28;;;25.64;31.94
21357;BME280;10836;53.068;18.234;2023-05-29T11:25:28;101449.91;;;25.31;33.61
21357;BME280;10836;53.068;18.234;2023-05-29T11:27:55;101442.28;;;25.15;33.21
21357;BME280;10836;53.068;18.234;2023-05-29T11:30:22;101446.09;;;25.23;29.76
21357;BME280;10836;53.068;18.234;2023-05-29T11:32:49;101439.44;;;24.75;30.98
21357;BME280;10836;53.068;18.234;2023-05-29T11:35:21;101444.13;;;24.23;31.89
21357;BME280;10836;53.068;18.234;2023-05-29T11:37:49;101447.00;;;24.02;33.40
21357;BME280;10836;53.068;18.234;2023-05-29T11:40:18;101439.63;;;23.52;33.37
21357;BME280;10836;53.068;18.234;2023-05-29T11:42:46;101431.75;;;23.87;32.75
21357;BME280;10836;53.068;18.234;2023-05-29T11:45:16;101448.03;;;23.97;32.16
21357;BME280;10836;53.068;18.234;2023-05-29T11:50:25;101446.44;;;25.22;32.16
21357;BME280;10836;53.068;18.234;2023-05-29T11:52:52;101441.31;;;25.24;29.92
21357;BME280;10836;53.068;18.234;2023-05-29T11:55:20;101432.63;;;25.41;28.69
21357;BME280;10836;53.068;18.234;2023-05-29T11:57:49;101435.56;;;24.92;31.10
21357;BME280;10836;53.068;18.234;2023-05-29T12:00:17;101438.63;;;25.55;30.46
21357;BME280;10836;53.068;18.234;2023-05-29T12:02:47;101433.91;;;25.59;29.42
21357;BME280;10836;53.068;18.234;2023-05-29T12:05:16;101434.47;;;24.32;31.01
21357;BME280;10836;53.068;18.234;2023-05-29T12:07:52;101433.13;;;25.31;30.73
21357;BME280;10836;53.068;18.234;2023-05-29T12:10:20;101431.47;;;25.42;30.06
21357;BME280;10836;53.068;18.234;2023-05-29T12:12:50;101443.81;;;25.41;31.43
21357;BME280;10836;53.068;18.234;2023-05-29T12:15:18;101430.22;;;26.30;28.46
21357;BME280;10836;53.068;18.234;2023-05-29T12:17:46;101430.16;;;26.42;27.71
21357;BME280;10836;53.068;18.234;2023-05-29T12:20:13;101423.53;;;26.19;27.85
21357;BME280;10836;53.068;18.234;2023-05-29T12:22:43;101424.63;;;25.83;26.79
21357;BME280;10836;53.068;18.234;2023-05-29T12:25:16;101421.09;;;25.58;28.94
21357;BME280;10836;53.068;18.234;2023-05-29T12:27:48;101417.75;;;25.80;26.70
21357;BME280;10836;53.068;18.234;2023-05-29T12:30:22;101415.84;;;26.16;27.78
21357;BME280;10836;53.068;18.234;2023-05-29T12:32:59;101418.13;;;26.26;28.06
21357;BME280;10836;53.068;18.234;2023-05-29T12:35:29;101415.84;;;25.41;27.49
21357;BME280;10836;53.068;18.234;2023-05-29T12:38:04;101423.19;;;25.61;29.44
21357;BME280;10836;53.068;18.234;2023-05-29T12:40:32;101416.56;;;24.21;29.63
21357;BME280;10836;53.068;18.234;2023-05-29T12:43:07;101418.34;;;24.90;29.48
21357;BME280;10836;53.068;18.234;2023-05-29T12:45:37;101412.53;;;24.83;29.72
21357;BME280;10836;53.068;18.234;2023-05-29T12:48:06;101416.88;;;23.95;31.65
21357;BME280;10836;53.068;18.234;2023-05-29T12:50:35;101412.91;;;23.84;31.89
21357;BME280;10836;53.068;18.234;2023-05-29T12:53:09;101411.91;;;24.62;29.62
21357;BME280;10836;53.068;18.234;2023-05-29T12:55:39;101418.09;;;24.31;30.84
21357;BME280;10836;53.068;18.234;2023-05-29T12:58:11;101410.75;;;24.26;29.29
21357;BME280;10836;53.068;18.234;2023-05-29T13:00:40;101409.34;;;24.32;29.17
21357;BME280;10836;53.068;18.234;2023-05-29T13:03:08;101410.44;;;24.92;29.34
21357;BME280;10836;53.068;18.234;2023-05-29T13:05:36;101401.91;;;24.48;29.99
21357;BME280;10836;53.068;18.234;2023-05-29T13:08:03;101406.97;;;24.83;28.50
21357;BME280;10836;53.068;18.234;2023-05-29T13:10:33;101403.69;;;24.81;29.76
21357;BME280;10836;53.068;18.234;2023-05-29T13:13:01;101405.38;;;25.38;28.86